sensor_id;sensor_type;location;lat;lon;timestamp;pressure;altitude;pressure_sealevel;temperature;humidity
42691;BME280;28306;55.744;37.578;2022-09-16T00:02:20;98414.47;;;16.25;43.83
42691;BME280;28306;55.744;37.578;2022-09-16T00:04:45;98407.97;;;16.21;43.88
42691;BME280;28306;55.744;37.578;2022-09-16T00:07:11;98410.41;;;16.23;43.90
42691;BME280;28306;55.744;37.578;2022-09-16T00:09:37;98394.09;;;16.12;44.07
42691;BME280;28306;55.744;37.578;2022-09-16T00:12:06;98404.22;;;16.22;44.15
42691;BME280;28306;55.744;37.578;2022-09-16T00:14:32;98403.06;;;16.18;44.00
42691;BME280;28306;55.744;37.578;2022-09-16T00:16:58;98402.59;;;16.21;43.91
42691;BME280;28306;55.744;37.578;2022-09-16T00:19:24;98387.78;;;16.18;43.96
42691;BME280;28306;55.744;37.578;2022-09-16T00:21:49;98398.75;;;16.17;44.15
42691;BME280;28306;55.744;37.578;2022-09-16T00:24:15;98398.03;;;16.21;43.92
42691;BME280;28306;55.744;37.578;2022-09-16T00:26:42;98408.53;;;16.23;43.90
42691;BME280;28306;55.744;37.578;2022-09-16T00:29:09;98399.31;;;16.19;44.03
42691;BME280;28306;55.744;37.578;2022-09-16T00:31:35;98398.19;;;16.15;43.94
42691;BME280;28306;55.744;37.578;2022-09-16T00:34:01;98407.72;;;16.23;43.92
42691;BME280;28306;55.744;37.578;2022-09-16T00:36:26;98407.72;;;16.23;43.91
42691;BME280;28306;55.744;37.578;2022-09-16T00:38:53;98410.41;;;16.23;43.93
42691;BME280;28306;55.744;37.578;2022-09-16T00:41:27;98413.09;;;16.23;44.00
42691;BME280;28306;55.744;37.578;2022-09-16T00:43:59;98411.22;;;16.23;44.03
42691;BME280;28306;55.744;37.578;2022-09-16T00:46:40;98410.75;;;16.26;44.11
42691;BME280;28306;55.744;37.578;2022-09-16T00:49:19;98407.13;;;16.20;43.93
42691;BME280;28306;55.744;37.578;2022-09-16T00:51:50;98413.91;;;16.23;43.88
42691;BME280;28306;55.744;37.578;2022-09-16T00:54:17;98413.91;;;16.23;43.92
42691;BME280;28306;55.744;37.578;2022-09-16T00:56:47;98413.91;;;16.23;44.03
42691;BME280;28306;55.744;37.578;2022-09-16T00:59:27;98404.56;;;16.26;44.00
42691;BME280;28306;55.744;37.578;2022-09-16T01:01:55;98405.28;;;16.21;43.84
42691;BME280;28306;55.744;37.578;2022-09-16T01:04:29;98387.44;;;16.15;44.02
42691;BME280;28306;55.744;37.578;2022-09-16T01:06:55;98400.72;;;16.21;43.93
42691;BME280;28306;55.744;37.578;2022-09-16T01:09:22;98392.44;;;16.23;44.08
42691;BME280;28306;55.744;37.578;2022-09-16T01:11:50;98390.56;;;16.24;44.06
42691;BME280;28306;55.744;37.578;2022-09-16T01:14:17;98389.75;;;16.23;43.88
42691;BME280;28306;55.744;37.578;2022-09-16T01:22:43;98383.09;;;16.26;43.89
42691;BME280;28306;55.744;37.578;2022-09-16T01:33:58;98392.53;;;16.28;44.02
42691;BME280;28306;55.744;37.578;2022-09-16T01:36:30;98387.63;;;16.25;43.94
42691;BME280;28306;55.744;37.578;2022-09-16T01:42:14;98386.81;;;16.25;44.00
42691;BME280;28306;55.744;37.578;2022-09-16T01:45:04;98386.34;;;16.28;44.10
42691;BME280;28306;55.744;37.578;2022-09-16T01:47:44;98399.19;;;16.26;43.97
42691;BME280;28306;55.744;37.578;2022-09-16T01:50:20;98388.72;;;16.24;43.90
42691;BME280;28306;55.744;37.578;2022-09-16T01:53:19;98383.91;;;16.26;44.05
42691;BME280;28306;55.744;37.578;2022-09-16T01:55:53;98373.09;;;16.21;43.92
42691;BME280;28306;55.744;37.578;2022-09-16T01:58:27;98386.25;;;16.23;43.97
42691;BME280;28306;55.744;37.578;2022-09-16T02:01:09;98386.03;;;16.24;44.05
42691;BME280;28306;55.744;37.578;2022-09-16T02:03:42;98369.47;;;16.15;44.15
42691;BME280;28306;55.744;37.578;2022-09-16T02:06:17;98376.56;;;16.21;44.17
42691;BME280;28306;55.744;37.578;2022-09-16T02:09:01;98360.13;;;16.18;44.01
42691;BME280;28306;55.744;37.578;2022-09-16T02:11:28;98360.72;;;16.20;43.84
42691;BME280;28306;55.744;37.578;2022-09-16T02:14:00;98376.56;;;16.21;44.25
42691;BME280;28306;55.744;37.578;2022-09-16T02:16:35;98379.81;;;16.24;43.97
42691;BME280;28306;55.744;37.578;2022-09-16T02:19:11;98377.38;;;16.22;43.98
42691;BME280;28306;55.744;37.578;2022-09-16T02:21:40;98374.38;;;16.18;44.00
42691;BME280;28306;55.744;37.578;2022-09-16T02:24:13;98363.31;;;16.15;43.89
42691;BME280;28306;55.744;37.578;2022-09-16T02:26:46;98375.75;;;16.21;44.14
42691;BME280;28306;55.744;37.578;2022-09-16T02:29:17;98371.44;;;16.20;44.01
42691;BME280;28306;55.744;37.578;2022-09-16T02:31:45;98360.84;;;16.13;44.04
42691;BME280;28306;55.744;37.578;2022-09-16T02:34:17;98368.19;;;16.18;44.11
42691;BME280;28306;55.744;37.578;2022-09-16T02:36:51;98373.66;;;16.23;44.12
42691;BME280;28306;55.744;37.578;2022-09-16T02:39:21;98367.25;;;16.24;43.98
42691;BME280;28306;55.744;37.578;2022-09-16T02:41:49;98363.16;;;16.21;43.97
42691;BME280;28306;55.744;37.578;2022-09-16T02:44:15;98356.38;;;16.19;43.87
42691;BME280;28306;55.744;37.578;2022-09-16T02:50:11;98357.41;;;16.30;43.88
42691;BME280;28306;55.744;37.578;2022-09-16T02:52:45;98358.72;;;16.27;43.95
42691;BME280;28306;55.744;37.578;2022-09-16T02:55:24;98357.88;;;16.27;43.88
42691;BME280;28306;55.744;37.578;2022-09-16T02:57:52;98349.25;;;16.25;44.03
42691;BME280;28306;55.744;37.578;2022-09-16T03:00:18;98349.25;;;16.25;43.79
42691;BME280;28306;55.744;37.578;2022-09-16T03:02:44;98351.13;;;16.24;43.72
42691;BME280;28306;55.744;37.578;2022-09-16T03:05:10;98338.91;;;16.16;43.77
42691;BME280;28306;55.744;37.578;2022-09-16T03:07:38;98344.94;;;16.24;43.89
42691;BME280;28306;55.744;37.578;2022-09-16T03:10:05;98344.38;;;16.21;43.97
42691;BME280;28306;55.744;37.578;2022-09-16T03:12:59;98350.50;;;16.34;43.84
42691;BME280;28306;55.744;37.578;2022-09-16T03:15:32;98345.84;;;16.29;43.69
42691;BME280;28306;55.744;37.578;2022-09-16T03:19:03;98334.44;;;16.22;43.91
42691;BME280;28306;55.744;37.578;2022-09-16T03:26:34;98346.41;;;16.31;43.67
42691;BME280;28306;55.744;37.578;2022-09-16T03:34:21;98355.06;;;16.33;43.89
42691;BME280;28306;55.744;37.578;2022-09-16T03:36:56;98349.69;;;16.33;43.74
42691;BME280;28306;55.744;37.578;2022-09-16T03:39:23;98353.44;;;16.32;43.76
42691;BME280;28306;55.744;37.578;2022-09-16T03:41:50;98362.88;;;16.35;43.83
42691;BME280;28306;55.744;37.578;2022-09-16T03:44:15;98335.59;;;16.26;43.63
42691;BME280;28306;55.744;37.578;2022-09-16T03:46:41;98358.31;;;16.35;43.60
42691;BME280;28306;55.744;37.578;2022-09-16T03:49:07;98358.88;;;16.37;43.74
42691;BME280;28306;55.744;37.578;2022-09-16T03:51:32;98355.63;;;16.35;43.82
42691;BME280;28306;55.744;37.578;2022-09-16T03:53:58;98355.97;;;16.39;43.54
42691;BME280;28306;55.744;37.578;2022-09-16T03:56:24;98349.47;;;16.35;43.52
42691;BME280;28306;55.744;37.578;2022-09-16T03:58:50;98358.41;;;16.40;43.52
42691;BME280;28306;55.744;37.578;2022-09-16T04:01:16;98338.03;;;16.28;43.42
42691;BME280;28306;55.744;37.578;2022-09-16T04:03:42;98363.78;;;16.40;43.39
42691;BME280;28306;55.744;37.578;2022-09-16T04:06:07;98365.41;;;16.42;43.35
42691;BME280;28306;55.744;37.578;2022-09-16T04:08:34;98336.75;;;16.30;43.59
42691;BME280;28306;55.744;37.578;2022-09-16T04:11:02;98366.47;;;16.40;43.64
42691;BME280;28306;55.744;37.578;2022-09-16T04:13:33;98367.28;;;16.41;43.64
42691;BME280;28306;55.744;37.578;2022-09-16T04:15:59;98364.38;;;16.43;43.47
42691;BME280;28306;55.744;37.578;2022-09-16T04:18:26;98357.28;;;16.36;43.34
42691;BME280;28306;55.744;37.578;2022-09-16T04:20:56;98351.91;;;16.36;43.54
42691;BME280;28306;55.744;37.578;2022-09-16T04:23:24;98365.97;;;16.44;43.55
42691;BME280;28306;55.744;37.578;2022-09-16T04:25:57;98362.81;;;16.47;43.45
42691;BME280;28306;55.744;37.578;2022-09-16T04:28:23;98358.25;;;16.47;43.35
42691;BME280;28306;55.744;37.578;2022-09-16T04:30:49;98357.44;;;16.47;43.37
42691;BME280;28306;55.744;37.578;2022-09-16T04:33:15;98352.56;;;16.44;43.24
42691;BME280;28306;55.744;37.578;2022-09-16T04:35:40;98358.53;;;16.46;43.38
42691;BME280;28306;55.744;37.578;2022-09-16T04:38:06;98359.91;;;16.48;43.50
42691;BME280;28306;55.744;37.578;2022-09-16T04:40:32;98357.22;;;16.48;43.33
42691;BME280;28306;55.744;37.578;2022-09-16T04:42:57;98346.94;;;16.45;43.28
42691;BME280;28306;55.744;37.578;2022-09-16T04:45:23;98349.97;;;16.49;43.42
42691;BME280;28306;55.744;37.578;2022-09-16T04:47:55;98351.13;;;16.53;43.27
42691;BME280;28306;55.744;37.578;2022-09-16T04:50:22;98345.75;;;16.53;43.27
42691;BME280;28306;55.744;37.578;2022-09-16T04:52:47;98335.97;;;16.47;43.26
42691;BME280;28306;55.744;37.578;2022-09-16T04:55:13;98343.63;;;16.55;43.14
42691;BME280;28306;55.744;37.578;2022-09-16T04:57:38;98343.63;;;16.55;43.21
42691;BME280;28306;55.744;37.578;2022-09-16T05:00:05;98338.25;;;16.55;43.31
42691;BME280;28306;55.744;37.578;2022-09-16T05:02:31;98335.34;;;16.56;43.33
42691;BME280;28306;55.744;37.578;2022-09-16T05:04:56;98335.56;;;16.55;43.14
42691;BME280;28306;55.744;37.578;2022-09-16T05:07:22;98343.16;;;16.58;43.30
42691;BME280;28306;55.744;37.578;2022-09-16T05:09:48;98325.78;;;16.49;43.19
42691;BME280;28306;55.744;37.578;2022-09-16T05:12:13;98336.41;;;16.55;43.21
42691;BME280;28306;55.744;37.578;2022-09-16T05:14:39;98333.13;;;16.53;43.13
42691;BME280;28306;55.744;37.578;2022-09-16T05:17:05;98333.00;;;16.60;42.94
42691;BME280;28306;55.744;37.578;2022-09-16T05:19:31;98328.91;;;16.57;43.29
42691;BME280;28306;55.744;37.578;2022-09-16T05:21:57;98337.28;;;16.61;43.05
42691;BME280;28306;55.744;37.578;2022-09-16T05:24:23;98320.84;;;16.57;43.05
42691;BME280;28306;55.744;37.578;2022-09-16T05:26:48;98317.44;;;16.62;43.08
42691;BME280;28306;55.744;37.578;2022-09-16T05:29:15;98290.00;;;16.43;43.00
42691;BME280;28306;55.744;37.578;2022-09-16T05:31:42;98323.38;;;16.64;42.92
42691;BME280;28306;55.744;37.578;2022-09-16T05:34:19;98325.59;;;16.67;43.40
42691;BME280;28306;55.744;37.578;2022-09-16T05:36:46;98310.94;;;16.58;43.06
42691;BME280;28306;55.744;37.578;2022-09-16T05:39:14;98319.16;;;16.68;43.06
42691;BME280;28306;55.744;37.578;2022-09-16T05:41:43;98312.06;;;16.62;42.84
42691;BME280;28306;55.744;37.578;2022-09-16T05:44:09;98315.19;;;16.71;42.95
42691;BME280;28306;55.744;37.578;2022-09-16T05:46:35;98292.56;;;16.67;42.99
42691;BME280;28306;55.744;37.578;2022-09-16T05:49:01;98302.31;;;16.73;43.04
42691;BME280;28306;55.744;37.578;2022-09-16T05:51:26;98302.66;;;16.76;42.83
42691;BME280;28306;55.744;37.578;2022-09-16T05:53:53;98305.09;;;16.78;42.88
42691;BME280;28306;55.744;37.578;2022-09-16T05:56:25;98306.22;;;16.82;42.95
42691;BME280;28306;55.744;37.578;2022-09-16T05:58:52;98291.34;;;16.74;42.55
42691;BME280;28306;55.744;37.578;2022-09-16T06:01:21;98298.66;;;16.79;42.83
42691;BME280;28306;55.744;37.578;2022-09-16T06:03:49;98302.00;;;16.86;42.74
42691;BME280;28306;55.744;37.578;2022-09-16T06:08:59;98307.50;;;16.91;42.56
42691;BME280;28306;55.744;37.578;2022-09-16T06:11:26;98304.56;;;16.93;42.43
42691;BME280;28306;55.744;37.578;2022-09-16T06:13:57;98298.94;;;16.95;42.59
42691;BME280;28306;55.744;37.578;2022-09-16T06:16:25;98302.44;;;16.95;42.26
42691;BME280;28306;55.744;37.578;2022-09-16T06:18:52;98305.91;;;16.96;42.45
42691;BME280;28306;55.744;37.578;2022-09-16T06:21:18;98291.63;;;16.90;42.46
42691;BME280;28306;55.744;37.578;2022-09-16T06:23:44;98294.88;;;16.92;42.29
42691;BME280;28306;55.744;37.578;2022-09-16T06:26:12;98305.44;;;16.99;42.46
42691;BME280;28306;55.744;37.578;2022-09-16T06:28:38;98284.91;;;16.92;42.35
42691;BME280;28306;55.744;37.578;2022-09-16T06:31:11;98296.09;;;17.01;42.25
42691;BME280;28306;55.744;37.578;2022-09-16T06:33:37;98301.28;;;17.08;42.11
42691;BME280;28306;55.744;37.578;2022-09-16T06:36:18;98288.19;;;17.11;42.24
42691;BME280;28306;55.744;37.578;2022-09-16T06:38:45;98280.69;;;17.14;42.14
42691;BME280;28306;55.744;37.578;2022-09-16T06:41:12;98280.19;;;17.17;42.18
42691;BME280;28306;55.744;37.578;2022-09-16T06:43:39;98275.38;;;17.19;42.22
42691;BME280;28306;55.744;37.578;2022-09-16T06:46:08;98277.56;;;17.22;42.14
42691;BME280;28306;55.744;37.578;2022-09-16T06:48:47;98260.88;;;17.20;42.08
42691;BME280;28306;55.744;37.578;2022-09-16T06:51:17;98274.94;;;17.27;41.97
42691;BME280;28306;55.744;37.578;2022-09-16T06:53:44;98275.03;;;17.32;41.99
42691;BME280;28306;55.744;37.578;2022-09-16T06:56:13;98264.53;;;17.31;42.00
42691;BME280;28306;55.744;37.578;2022-09-16T06:58:41;98273.44;;;17.36;41.81
42691;BME280;28306;55.744;37.578;2022-09-16T07:01:13;98267.56;;;17.39;41.84
42691;BME280;28306;55.744;37.578;2022-09-16T07:03:41;98269.75;;;17.42;41.88
42691;BME280;28306;55.744;37.578;2022-09-16T07:06:08;98261.19;;;17.45;41.60
42691;BME280;28306;55.744;37.578;2022-09-16T07:08:35;98273.91;;;17.50;41.73
42691;BME280;28306;55.744;37.578;2022-09-16T07:11:04;98240.44;;;17.41;41.79
42691;BME280;28306;55.744;37.578;2022-09-16T07:13:31;98269.41;;;17.56;41.58
42691;BME280;28306;55.744;37.578;2022-09-16T07:16:13;98265.72;;;17.62;41.50
42691;BME280;28306;55.744;37.578;2022-09-16T07:18:40;98270.59;;;17.65;41.47
42691;BME280;28306;55.744;37.578;2022-09-16T07:21:12;98259.34;;;17.68;41.40
42691;BME280;28306;55.744;37.578;2022-09-16T07:23:39;98266.09;;;17.71;41.36
42691;BME280;28306;55.744;37.578;2022-09-16T07:26:08;98261.28;;;17.73;41.14
42691;BME280;28306;55.744;37.578;2022-09-16T07:28:35;98259.94;;;17.75;41.33
42691;BME280;28306;55.744;37.578;2022-09-16T07:31:03;98266.97;;;17.76;41.30
42691;BME280;28306;55.744;37.578;2022-09-16T07:33:30;98243.81;;;17.75;41.27
42691;BME280;28306;55.744;37.578;2022-09-16T07:35:59;98250.31;;;17.79;41.20
42691;BME280;28306;55.744;37.578;2022-09-16T07:38:26;98242.50;;;17.78;41.27
42691;BME280;28306;55.744;37.578;2022-09-16T07:40:52;98229.50;;;17.70;41.20
42691;BME280;28306;55.744;37.578;2022-09-16T07:43:17;98236.03;;;17.79;41.25
42691;BME280;28306;55.744;37.578;2022-09-16T07:45:43;98226.06;;;17.74;41.18
42691;BME280;28306;55.744;37.578;2022-09-16T07:48:09;98229.34;;;17.81;41.06
42691;BME280;28306;55.744;37.578;2022-09-16T07:50:34;98231.53;;;17.84;41.20
42691;BME280;28306;55.744;37.578;2022-09-16T07:53:00;98214.50;;;17.79;41.16
42691;BME280;28306;55.744;37.578;2022-09-16T07:55:26;98219.97;;;17.84;40.98
42691;BME280;28306;55.744;37.578;2022-09-16T07:57:52;98227.38;;;17.94;41.07
42691;BME280;28306;55.744;37.578;2022-09-16T08:00:18;98216.09;;;17.97;41.07
42691;BME280;28306;55.744;37.578;2022-09-16T08:02:43;98211.00;;;18.00;40.87
42691;BME280;28306;55.744;37.578;2022-09-16T08:05:09;98192.94;;;17.96;40.75
42691;BME280;28306;55.744;37.578;2022-09-16T08:07:35;98200.25;;;18.00;41.07
42691;BME280;28306;55.744;37.578;2022-09-16T08:10:01;98213.81;;;18.11;41.18
42691;BME280;28306;55.744;37.578;2022-09-16T08:12:27;98209.25;;;18.16;40.86
42691;BME280;28306;55.744;37.578;2022-09-16T08:14:58;98209.34;;;18.22;40.68
42691;BME280;28306;55.744;37.578;2022-09-16T08:17:24;98199.66;;;18.26;40.73
42691;BME280;28306;55.744;37.578;2022-09-16T08:19:49;98205.38;;;18.29;40.57
42691;BME280;28306;55.744;37.578;2022-09-16T08:22:15;98181.06;;;18.24;40.34
42691;BME280;28306;55.744;37.578;2022-09-16T08:24:41;98201.94;;;18.39;40.59
42691;BME280;28306;55.744;37.578;2022-09-16T08:27:07;98192.78;;;18.40;40.41
42691;BME280;28306;55.744;37.578;2022-09-16T08:29:33;98183.13;;;18.44;40.34
42691;BME280;28306;55.744;37.578;2022-09-16T08:31:58;98184.50;;;18.47;40.24
42691;BME280;28306;55.744;37.578;2022-09-16T08:34:24;98179.66;;;18.49;40.16
42691;BME280;28306;55.744;37.578;2022-09-16T08:36:50;98176.97;;;18.49;40.13
42691;BME280;28306;55.744;37.578;2022-09-16T08:39:16;98164.53;;;18.43;40.20
42691;BME280;28306;55.744;37.578;2022-09-16T08:50:31;98172.47;;;18.65;40.22
42691;BME280;28306;55.744;37.578;2022-09-16T08:53:00;98173.31;;;18.65;40.44
42691;BME280;28306;55.744;37.578;2022-09-16T08:55:36;98173.56;;;18.64;40.58
42691;BME280;28306;55.744;37.578;2022-09-16T08:58:15;98172.28;;;18.71;40.40
42691;BME280;28306;55.744;37.578;2022-09-16T09:00:44;98175.22;;;18.70;40.46
42691;BME280;28306;55.744;37.578;2022-09-16T09:03:15;98174.13;;;18.71;40.53
42691;BME280;28306;55.744;37.578;2022-09-16T09:05:51;98175.25;;;18.75;40.35
42691;BME280;28306;55.744;37.578;2022-09-16T09:08:44;98176.34;;;18.79;40.42
42691;BME280;28306;55.744;37.578;2022-09-16T09:17:39;98174.34;;;18.97;40.47
42691;BME280;28306;55.744;37.578;2022-09-16T09:25:45;98170.81;;;18.96;40.10
42691;BME280;28306;55.744;37.578;2022-09-16T09:31:01;98176.19;;;18.96;39.85
42691;BME280;28306;55.744;37.578;2022-09-16T09:33:35;98166.00;;;18.98;39.70
42691;BME280;28306;55.744;37.578;2022-09-16T09:41:38;98166.53;;;19.05;39.64
42691;BME280;28306;55.744;37.578;2022-09-16T09:46:57;98135.03;;;19.11;39.83
42691;BME280;28306;55.744;37.578;2022-09-16T09:49:32;98150.69;;;19.14;39.79
42691;BME280;28306;55.744;37.578;2022-09-16T09:54:32;98146.63;;;19.17;39.82
42691;BME280;28306;55.744;37.578;2022-09-16T09:57:02;98137.47;;;19.13;39.82
42691;BME280;28306;55.744;37.578;2022-09-16T09:59:45;98142.88;;;19.18;40.18
42691;BME280;28306;55.744;37.578;2022-09-16T10:02:22;98146.38;;;19.18;39.98
42691;BME280;28306;55.744;37.578;2022-09-16T10:04:49;98135.31;;;19.15;39.88
42691;BME280;28306;55.744;37.578;2022-09-16T10:07:18;98132.88;;;19.13;40.12
42691;BME280;28306;55.744;37.578;2022-09-16T10:10:00;98128.28;;;19.14;40.24
42691;BME280;28306;55.744;37.578;2022-09-16T10:12:33;98142.03;;;19.12;40.01
42691;BME280;28306;55.744;37.578;2022-09-16T10:15:00;98133.41;;;19.10;40.22
42691;BME280;28306;55.744;37.578;2022-09-16T10:17:29;98139.06;;;19.08;40.55
42691;BME280;28306;55.744;37.578;2022-09-16T10:20:01;98129.06;;;19.04;40.40
42691;BME280;28306;55.744;37.578;2022-09-16T10:22:34;98116.13;;;19.01;40.26
42691;BME280;28306;55.744;37.578;2022-09-16T10:25:03;98124.78;;;19.08;40.48
42691;BME280;28306;55.744;37.578;2022-09-16T10:27:35;98111.31;;;19.08;40.75
42691;BME280;28306;55.744;37.578;2022-09-16T10:32:55;98115.34;;;19.11;40.54
42691;BME280;28306;55.744;37.578;2022-09-16T10:35:30;98115.09;;;19.12;40.05
42691;BME280;28306;55.744;37.578;2022-09-16T10:38:16;98107.28;;;19.16;40.23
42691;BME280;28306;55.744;37.578;2022-09-16T10:40:53;98102.69;;;19.16;40.19
42691;BME280;28306;55.744;37.578;2022-09-16T10:43:20;98102.97;;;19.15;39.96
42691;BME280;28306;55.744;37.578;2022-09-16T10:45:49;98105.94;;;19.13;40.22
42691;BME280;28306;55.744;37.578;2022-09-16T10:48:18;98103.22;;;19.13;40.20
42691;BME280;28306;55.744;37.578;2022-09-16T10:50:56;98102.69;;;19.16;40.36
42691;BME280;28306;55.744;37.578;2022-09-16T10:53:36;98104.88;;;19.14;40.19
42691;BME280;28306;55.744;37.578;2022-09-16T10:56:16;98095.69;;;19.15;40.15
42691;BME280;28306;55.744;37.578;2022-09-16T10:58:42;98086.25;;;19.07;40.25
42691;BME280;28306;55.744;37.578;2022-09-16T11:12:13;98085.94;;;19.04;40.30
42691;BME280;28306;55.744;37.578;2022-09-16T11:29:01;98057.63;;;18.96;41.08
42691;BME280;28306;55.744;37.578;2022-09-16T11:31:41;98058.44;;;18.97;40.96
42691;BME280;28306;55.744;37.578;2022-09-16T11:42:12;98049.78;;;18.89;41.03
42691;BME280;28306;55.744;37.578;2022-09-16T11:44:47;98056.81;;;18.90;41.18
42691;BME280;28306;55.744;37.578;2022-09-16T11:56:09;98038.47;;;18.93;40.96
42691;BME280;28306;55.744;37.578;2022-09-16T11:58:45;98035.50;;;18.89;40.81
42691;BME280;28306;55.744;37.578;2022-09-16T12:01:36;98035.25;;;18.96;41.09
42691;BME280;28306;55.744;37.578;2022-09-16T12:04:22;98028.78;;;18.91;41.04
42691;BME280;28306;55.744;37.578;2022-09-16T12:07:16;98043.06;;;18.92;41.04
42691;BME280;28306;55.744;37.578;2022-09-16T12:12:36;98027.38;;;18.84;41.07
42691;BME280;28306;55.744;37.578;2022-09-16T12:15:16;98030.66;;;18.86;41.31
42691;BME280;28306;55.744;37.578;2022-09-16T12:17:51;98026.56;;;18.78;41.19
42691;BME280;28306;55.744;37.578;2022-09-16T12:20:25;98022.75;;;18.79;41.10
42691;BME280;28306;55.744;37.578;2022-09-16T12:22:59;98022.75;;;18.74;41.42
42691;BME280;28306;55.744;37.578;2022-09-16T12:28:25;98022.22;;;18.77;41.49
42691;BME280;28306;55.744;37.578;2022-09-16T12:31:12;98019.00;;;18.75;41.49
42691;BME280;28306;55.744;37.578;2022-09-16T12:33:43;98017.63;;;18.72;41.44
42691;BME280;28306;55.744;37.578;2022-09-16T12:36:15;98009.81;;;18.71;41.58
42691;BME280;28306;55.744;37.578;2022-09-16T12:38:42;98008.47;;;18.68;41.24
42691;BME280;28306;55.744;37.578;2022-09-16T13:00:12;98004.66;;;18.59;41.36
42691;BME280;28306;55.744;37.578;2022-09-16T13:02:57;98005.44;;;18.54;41.42
42691;BME280;28306;55.744;37.578;2022-09-16T13:05:30;98014.09;;;18.62;41.57
42691;BME280;28306;55.744;37.578;2022-09-16T13:07:59;98019.53;;;18.77;41.08
42691;BME280;28306;55.744;37.578;2022-09-16T13:10:37;98006.53;;;18.59;41.20
42691;BME280;28306;55.744;37.578;2022-09-16T13:13:05;98012.44;;;18.55;41.38
42691;BME280;28306;55.744;37.578;2022-09-16T13:15:37;98006.78;;;18.57;41.38
42691;BME280;28306;55.744;37.578;2022-09-16T13:20:39;98006.50;;;18.48;41.27
42691;BME280;28306;55.744;37.578;2022-09-16T13:23:22;98011.09;;;18.53;41.31
42691;BME280;28306;55.744;37.578;2022-09-16T13:28:42;98009.19;;;18.48;41.44
42691;BME280;28306;55.744;37.578;2022-09-16T13:33:40;98018.84;;;18.44;41.45
42691;BME280;28306;55.744;37.578;2022-09-16T13:38:56;98027.47;;;18.41;41.68
42691;BME280;28306;55.744;37.578;2022-09-16T13:41:45;98025.03;;;18.45;41.60
42691;BME280;28306;55.744;37.578;2022-09-16T13:52:18;98014.75;;;18.31;41.71
42691;BME280;28306;55.744;37.578;2022-09-16T13:54:52;98005.56;;;18.27;41.99
42691;BME280;28306;55.744;37.578;2022-09-16T14:00:21;98012.06;;;18.31;41.86
42691;BME280;28306;55.744;37.578;2022-09-16T14:11:58;97996.19;;;18.30;41.69
42691;BME280;28306;55.744;37.578;2022-09-16T14:14:30;98002.31;;;18.20;41.56
42691;BME280;28306;55.744;37.578;2022-09-16T14:16:57;98002.84;;;18.22;41.71
42691;BME280;28306;55.744;37.578;2022-09-16T14:19:30;98006.63;;;18.21;41.79
42691;BME280;28306;55.744;37.578;2022-09-16T14:22:26;97997.75;;;18.21;42.01
42691;BME280;28306;55.744;37.578;2022-09-16T14:24:53;98003.66;;;18.17;41.76
42691;BME280;28306;55.744;37.578;2022-09-16T14:27:30;98012.25;;;18.19;42.04
42691;BME280;28306;55.744;37.578;2022-09-16T14:30:04;98011.97;;;18.11;42.35
42691;BME280;28306;55.744;37.578;2022-09-16T14:32:35;98005.97;;;18.04;42.12
42691;BME280;28306;55.744;37.578;2022-09-16T14:35:16;98025.69;;;18.14;42.18
42691;BME280;28306;55.744;37.578;2022-09-16T14:37:45;98017.59;;;18.09;42.26
42691;BME280;28306;55.744;37.578;2022-09-16T14:40:14;98020.28;;;18.09;42.34
42691;BME280;28306;55.744;37.578;2022-09-16T14:43:07;98018.69;;;18.13;42.21
42691;BME280;28306;55.744;37.578;2022-09-16T14:45:37;98017.59;;;18.09;42.13
42691;BME280;28306;55.744;37.578;2022-09-16T14:48:08;97994.94;;;18.00;42.17
42691;BME280;28306;55.744;37.578;2022-09-16T14:50:46;98002.78;;;18.07;42.35
42691;BME280;28306;55.744;37.578;2022-09-16T14:53:27;97997.38;;;18.07;42.39
42691;BME280;28306;55.744;37.578;2022-09-16T14:55:54;97998.94;;;17.97;42.09
42691;BME280;28306;55.744;37.578;2022-09-16T14:58:21;97997.34;;;17.96;41.99
42691;BME280;28306;55.744;37.578;2022-09-16T15:01:08;98000.59;;;18.04;42.17
42691;BME280;28306;55.744;37.578;2022-09-16T15:03:46;97997.63;;;18.00;42.13
42691;BME280;28306;55.744;37.578;2022-09-16T15:06:16;97991.69;;;17.98;42.12
42691;BME280;28306;55.744;37.578;2022-09-16T15:11:26;97977.94;;;17.94;42.48
42691;BME280;28306;55.744;37.578;2022-09-16T15:13:53;97982.50;;;17.94;42.36
42691;BME280;28306;55.744;37.578;2022-09-16T15:16:21;97981.41;;;17.90;42.31
42691;BME280;28306;55.744;37.578;2022-09-16T15:19:02;97975.50;;;17.93;42.52
42691;BME280;28306;55.744;37.578;2022-09-16T15:21:33;97978.44;;;17.91;42.16
42691;BME280;28306;55.744;37.578;2022-09-16T15:24:02;97944.94;;;17.72;42.15
42691;BME280;28306;55.744;37.578;2022-09-16T15:26:30;97975.22;;;17.89;42.46
42691;BME280;28306;55.744;37.578;2022-09-16T15:29:12;97973.59;;;17.88;42.65
42691;BME280;28306;55.744;37.578;2022-09-16T15:31:50;97967.38;;;17.88;42.74
42691;BME280;28306;55.744;37.578;2022-09-16T15:36:44;97967.34;;;17.82;42.53
42691;BME280;28306;55.744;37.578;2022-09-16T15:42:18;97964.69;;;17.88;42.78
42691;BME280;28306;55.744;37.578;2022-09-16T15:44:49;97963.84;;;17.82;43.08
42691;BME280;28306;55.744;37.578;2022-09-16T15:47:17;97956.03;;;17.80;43.10
42691;BME280;28306;55.744;37.578;2022-09-16T15:49:44;97952.50;;;17.75;43.25
42691;BME280;28306;55.744;37.578;2022-09-16T15:52:11;97958.44;;;17.77;43.29
42691;BME280;28306;55.744;37.578;2022-09-16T15:54:59;97939.06;;;17.75;43.24
42691;BME280;28306;55.744;37.578;2022-09-16T15:57:32;97946.88;;;17.76;43.26
42691;BME280;28306;55.744;37.578;2022-09-16T16:00:05;97931.75;;;17.65;43.24
42691;BME280;28306;55.744;37.578;2022-09-16T16:02:54;97946.59;;;17.78;43.17
42691;BME280;28306;55.744;37.578;2022-09-16T16:05:24;97947.66;;;17.72;43.19
42691;BME280;28306;55.744;37.578;2022-09-16T16:07:57;97939.28;;;17.68;43.57